New Harmony, IN

6:09 AM CST on March 05, 2015 (GMT -0600)
Old Plank Rd N | Change Station
CLOSE
Current Station
Personal Weather Station
Location: New Harmony, IN
Elevation: 482 ft
Nearby Weather Stations
Active Advisory: Flood Warning Active Notice: Local Storm Report

Elev 482 ft 38.11 °N, 87.93 °W | Updated 38 seconds ago

Mostly Cloudy
Mostly Cloudy
18.3 °F
Feels Like 10 °F
N
6.0
Wind Variable Wind from NW
Gusts 11.0 mph

Today
High -- | Low -- °F
--% Chance of Precip.
Yesterday
High -- | Low -- °F
Precip. -- in
6:18 AM 5:48 PM
Full, 100% visible
Pressure 30.38 in
Visibility 10.0 miles
Clouds Clear
Windchill 10 °F
Dew Point 10 °F
Humidity 68%
Rainfall in
Snow Depth Not available.
UV 0.0 out of 12
Pollen .70 out of 12
Air Quality Not available.
Flu Activity Not available.
METAR KCUL 051155Z AUTO 35012KT 10SM CLR M07/M12 A3038 RMK AO2 T10661123 11055 21066

More Conditions Fewer Conditions

Pressure 30.38 in
Visibility 10.0 miles
Clouds Clear
Windchill 10 °F
Dew Point 10 °F
Humidity 68%
Rainfall in
Snow Depth Not available.
UV 0.0 out of 12
Pollen .70 out of 12
Air Quality Not available.
Flu Activity Not available.
METAR KCUL 051155Z AUTO 35012KT 10SM CLR M07/M12 A3038 RMK AO2 T10661123 11055 21066

More Conditions Fewer Conditions

10-Day Weather Forecast

Almanac

Astronomy

Mar. 05, 2015 Rise Set
Actual Time
Civil Twilight
Nautical Twilight
Astronomical Twilight
Moon
Length of Visible Light
Length of Day
Tomorrow will be .
, % of the Moon is Illuminated

Today's Extremes

State Highs State Lows

Community

WunderPhotos

Upload Photos

1,802,716 photos uploaded!

WunderBlogs® & News

Nearby

Air Quality

  Air Quality AQ Index Pollutant
Not available.

Snow Depth

Station Depth Elevation

Earthquake Activity

City Distance Mag. Time & Date
Minimum magnitude displayed is 2.5.

Coastal Water Temperatures

Place Temperature

Nearby Weather Stations

Flood Warning
Statement as of 9:18 PM CST on March 04, 2015

The Flood Warning continues for
the Ohio River at Mount Vernon
* from Friday evening until further notice.
* At 6:00 am Wednesday the stage was 25.6 feet.
* Flood stage is 35.0 feet.
* Minor flooding is forecast.
* Forecast... rise above flood stage by Friday before midnight and
continue to rise to near 41.8 feet by Thursday early afternoon.
* Impact... at 40.0 feet... farm land and some main roads are flooded in
places southwest and west of Mt. Vernon.


Lat... Lon 3792 8796 3780 8784 3781 8769 3796 8770
      3798 8784




918 PM CST Wed Mar 4 2015

The Flood Warning continues for
the Ohio River at j.T. Myers dam
* from Sunday morning until further notice.
* At 7:00 PM Wednesday the stage was 24.1 feet.
* Flood stage is 37.0 feet.
* Minor flooding is forecast.
* Forecast... rise above flood stage by Sunday morning and continue to
rise to near 41.7 feet by Thursday morning. Additional rises are
possible thereafter.


Lat... Lon 3778 8811 3773 8800 3780 8784 3792 8796